Time;durP1;ratioP1;P1;durP2;ratioP2;P2;SDS_P1;SDS_P2;PMS_P1;PMS_P2;Temp;Humidity;BMP_temperature;BMP_pressure;BME280_temperature;BME280_humidity;BME280_pressure;Samples;Min_cycle;Max_cycle;Signal;HPM_P1;HPM_P2
2021/12/04 00:01:47;;;;;;;11.25;7.15;;;3.90;99.90;;;;;;5089235;28;20024;-49
2021/12/04 00:04:13;;;;;;;10.43;6.60;;;3.90;99.90;;;;;;5095236;28;20191;-48
2021/12/04 00:06:40;;;;;;;14.95;7.15;;;3.90;99.90;;;;;;5103460;28;20020;-49
2021/12/04 00:09:07;;;;;;;13.25;8.18;;;3.90;99.90;;;;;;5109170;28;20035;-48
2021/12/04 00:11:35;;;;;;;11.80;7.47;;;3.90;99.90;;;;;;5109165;28;20019;-48
2021/12/04 00:14:00;;;;;;;10.65;7.00;;;3.80;99.90;;;;;;5108240;28;20034;-48
2021/12/04 00:16:26;;;;;;;10.52;7.28;;;3.80;99.90;;;;;;5109436;28;20177;-48
2021/12/04 00:18:51;;;;;;;12.30;8.20;;;3.90;99.90;;;;;;5108780;28;20035;-48
2021/12/04 00:21:17;;;;;;;11.98;8.13;;;3.90;99.90;;;;;;5109031;28;20024;-48
2021/12/04 00:23:42;;;;;;;12.27;7.20;;;3.80;99.90;;;;;;5108022;28;20088;-47
2021/12/04 00:26:08;;;;;;;9.55;6.93;;;3.90;99.90;;;;;;5109225;28;20422;-50
2021/12/04 00:28:33;;;;;;;9.63;8.07;;;3.80;99.90;;;;;;5109075;28;20024;-51
2021/12/04 00:31:04;;;;;;;10.85;6.65;;;3.90;99.90;;;;;;5109138;28;20095;-48
2021/12/04 00:33:32;;;;;;;12.40;8.02;;;3.90;99.90;;;;;;5100005;28;20412;-48
2021/12/04 00:36:08;;;;;;;12.85;7.13;;;3.90;99.90;;;;;;5100540;28;20027;-48
2021/12/04 00:49:30;;;;;;;12.13;7.68;;;3.90;99.90;;;;;;5108850;28;20216;-48
2021/12/04 00:51:58;;;;;;;11.60;7.00;;;3.90;99.90;;;;;;5108779;28;20032;-48
2021/12/04 00:54:26;;;;;;;11.70;7.45;;;3.90;99.90;;;;;;5108109;28;20023;-49
2021/12/04 00:56:53;;;;;;;12.75;7.00;;;3.90;99.90;;;;;;5106975;28;20024;-50
2021/12/04 00:59:19;;;;;;;12.85;7.13;;;3.90;99.90;;;;;;5108072;28;20084;-50
2021/12/04 01:01:45;;;;;;;10.82;7.25;;;3.90;99.90;;;;;;5108462;28;20483;-49
2021/12/04 01:04:13;;;;;;;11.50;6.82;;;3.90;99.90;;;;;;5097423;28;20032;-48
2021/12/04 01:06:39;;;;;;;10.23;7.43;;;3.90;99.90;;;;;;5102633;28;20546;-48
2021/12/04 01:09:07;;;;;;;9.40;6.97;;;3.90;99.90;;;;;;5108312;28;20031;-48
2021/12/04 01:11:33;;;;;;;10.18;7.38;;;3.90;99.90;;;;;;5108297;28;20473;-48
2021/12/04 01:13:59;;;;;;;14.80;7.18;;;3.90;99.90;;;;;;5107803;28;20032;-48
2021/12/04 01:16:24;;;;;;;13.15;7.90;;;3.90;99.90;;;;;;5108212;28;20041;-48
2021/12/04 01:18:50;;;;;;;9.27;7.13;;;3.90;99.90;;;;;;5107566;28;20027;-48
2021/12/04 01:21:16;;;;;;;10.20;6.57;;;3.90;99.90;;;;;;5106876;28;20106;-48
2021/12/04 01:23:41;;;;;;;10.40;7.00;;;3.90;99.90;;;;;;5107053;28;20174;-50
2021/12/04 01:26:07;;;;;;;12.52;6.72;;;3.90;99.90;;;;;;5108441;28;20039;-49
2021/12/04 01:28:32;;;;;;;11.57;7.22;;;4.00;99.90;;;;;;5108293;28;20058;-48
2021/12/04 01:30:58;;;;;;;14.00;7.65;;;4.00;99.90;;;;;;5106604;28;20035;-48
2021/12/04 01:33:23;;;;;;;13.40;7.10;;;4.00;99.90;;;;;;5099441;28;20065;-48
2021/12/04 01:35:49;;;;;;;12.75;7.28;;;4.00;99.90;;;;;;5098968;28;20092;-48
2021/12/04 01:38:14;;;;;;;11.80;7.15;;;4.00;99.90;;;;;;5087655;28;20363;-50
2021/12/04 01:40:40;;;;;;;10.60;6.72;;;4.00;99.90;;;;;;5087589;28;20035;-48
2021/12/04 01:43:07;;;;;;;11.05;6.90;;;4.00;99.90;;;;;;5087486;28;20066;-49
2021/12/04 01:45:33;;;;;;;10.00;7.28;;;4.00;99.90;;;;;;5087462;28;20404;-48
2021/12/04 01:48:00;;;;;;;10.15;7.03;;;4.00;99.90;;;;;;5087393;28;20047;-49
2021/12/04 01:50:27;;;;;;;12.73;7.80;;;4.00;99.90;;;;;;5086363;28;20032;-49
2021/12/04 01:52:55;;;;;;;12.95;7.75;;;4.00;99.90;;;;;;5087167;28;20086;-48
2021/12/04 01:55:27;;;;;;;11.07;7.53;;;4.00;99.90;;;;;;5086877;28;20048;-51
2021/12/04 01:57:53;;;;;;;12.57;7.43;;;4.00;99.90;;;;;;5089148;28;20016;-48
2021/12/04 02:00:20;;;;;;;14.77;8.00;;;4.00;99.90;;;;;;5091452;28;20133;-48
2021/12/04 02:02:45;;;;;;;9.18;7.03;;;4.00;99.90;;;;;;5084848;28;20033;-48
2021/12/04 02:05:11;;;;;;;12.98;7.15;;;4.00;99.90;;;;;;5099567;28;20030;-48
2021/12/04 02:07:36;;;;;;;12.20;7.03;;;4.00;99.90;;;;;;5111575;28;20476;-48
2021/12/04 02:10:05;;;;;;;9.23;6.68;;;4.00;99.90;;;;;;5111512;28;20106;-48
2021/12/04 02:12:30;;;;;;;11.10;7.55;;;4.00;99.90;;;;;;5111533;27;20123;-48
2021/12/04 02:14:56;;;;;;;11.52;7.47;;;3.90;99.90;;;;;;5110915;28;20516;-48
2021/12/04 02:17:21;;;;;;;12.13;7.05;;;3.90;99.90;;;;;;5112162;28;20358;-48
2021/12/04 02:19:47;;;;;;;11.82;7.57;;;4.00;99.90;;;;;;5110764;28;20431;-48
2021/12/04 02:22:13;;;;;;;9.80;7.10;;;4.00;99.90;;;;;;5111323;28;20365;-50
2021/12/04 02:24:39;;;;;;;11.63;8.07;;;4.00;99.90;;;;;;5110511;28;20366;-48
2021/12/04 02:27:05;;;;;;;11.50;7.90;;;4.00;99.90;;;;;;5111368;28;20027;-48
2021/12/04 02:29:30;;;;;;;12.15;7.18;;;3.90;99.90;;;;;;5111318;28;20385;-48
2021/12/04 02:31:58;;;;;;;13.55;7.70;;;3.90;99.90;;;;;;5111817;28;20043;-50
2021/12/04 02:34:26;;;;;;;12.30;6.97;;;3.90;99.90;;;;;;5088839;28;20028;-48
2021/12/04 02:36:52;;;;;;;15.40;8.40;;;4.00;99.90;;;;;;5107028;28;20023;-48
2021/12/04 02:39:27;;;;;;;13.93;8.15;;;3.90;99.90;;;;;;5110956;28;20061;-48
2021/12/04 02:41:53;;;;;;;13.05;8.10;;;4.00;99.90;;;;;;5111269;28;20500;-49
2021/12/04 02:44:19;;;;;;;13.63;8.00;;;3.90;99.90;;;;;;5109368;28;20051;-50
2021/12/04 02:46:45;;;;;;;10.73;7.53;;;4.00;99.90;;;;;;5110941;28;20085;-51
2021/12/04 02:49:13;;;;;;;13.20;8.00;;;4.00;99.90;;;;;;5109364;28;20015;-48
2021/12/04 02:51:39;;;;;;;14.00;9.15;;;4.00;99.90;;;;;;5110752;28;20135;-49
2021/12/04 02:54:06;;;;;;;15.32;8.98;;;4.00;99.90;;;;;;5110473;28;20053;-50
2021/12/04 02:56:32;;;;;;;13.75;8.77;;;4.00;99.90;;;;;;5110977;28;20020;-50
2021/12/04 02:59:01;;;;;;;11.52;7.53;;;4.00;99.90;;;;;;5110888;28;20031;-49
2021/12/04 03:01:27;;;;;;;11.57;8.23;;;4.00;99.90;;;;;;5111070;28;20506;-48
2021/12/04 03:04:08;;;;;;;9.52;7.05;;;4.00;99.90;;;;;;5102030;27;20020;-48
2021/12/04 03:06:43;;;;;;;13.48;8.02;;;4.00;99.90;;;;;;5097768;28;20023;-48
2021/12/04 03:09:08;;;;;;;15.30;8.32;;;3.90;99.90;;;;;;5108312;28;20068;-49
2021/12/04 03:11:34;;;;;;;11.52;7.60;;;3.90;99.90;;;;;;5110587;28;20027;-48
2021/12/04 03:14:00;;;;;;;10.13;7.35;;;3.90;99.90;;;;;;5108236;28;20034;-50
2021/12/04 03:16:26;;;;;;;9.73;8.00;;;3.90;99.90;;;;;;5110670;28;20027;-48
2021/12/04 03:18:51;;;;;;;11.00;6.65;;;3.90;99.90;;;;;;5109444;28;20031;-48
2021/12/04 03:21:17;;;;;;;11.30;7.10;;;3.90;99.90;;;;;;5110370;28;20481;-49
2021/12/04 03:23:53;;;;;;;9.60;6.68;;;4.00;99.90;;;;;;5109575;28;20031;-50
2021/12/04 03:26:28;;;;;;;10.55;6.82;;;4.00;99.90;;;;;;5109921;28;20024;-49
2021/12/04 03:28:55;;;;;;;10.10;6.78;;;4.00;99.90;;;;;;5110335;28;20028;-48
2021/12/04 03:42:12;;;;;;;9.63;7.10;;;4.00;99.90;;;;;;5110291;28;20385;-48
2021/12/04 03:44:38;;;;;;;12.38;8.00;;;4.00;99.90;;;;;;5108912;28;20020;-48
2021/12/04 03:47:04;;;;;;;7.70;6.07;;;4.00;99.90;;;;;;5109175;28;20034;-48
2021/12/04 03:49:30;;;;;;;10.57;6.70;;;4.00;99.90;;;;;;5109877;28;20591;-48
2021/12/04 03:51:56;;;;;;;10.25;6.80;;;4.00;99.90;;;;;;5091280;28;20397;-48
2021/12/04 03:54:22;;;;;;;11.15;6.93;;;3.90;99.90;;;;;;5107568;28;20034;-48
2021/12/04 03:56:47;;;;;;;11.18;7.35;;;4.00;99.90;;;;;;5109325;28;20608;-48
2021/12/04 03:59:13;;;;;;;9.07;7.05;;;3.90;99.90;;;;;;5109391;28;20019;-49
2021/12/04 04:01:38;;;;;;;10.55;7.00;;;3.90;99.90;;;;;;5109675;28;20393;-49
2021/12/04 04:04:04;;;;;;;10.73;7.70;;;3.90;99.90;;;;;;5097217;28;20356;-48
2021/12/04 04:06:29;;;;;;;13.27;7.50;;;3.90;99.90;;;;;;5102219;28;20024;-48
2021/12/04 04:08:55;;;;;;;10.45;7.68;;;3.90;99.90;;;;;;5109483;28;20031;-49
2021/12/04 04:11:20;;;;;;;12.43;6.53;;;3.90;99.90;;;;;;5109451;28;20099;-48
2021/12/04 04:13:46;;;;;;;14.93;7.95;;;3.90;99.90;;;;;;5108761;28;20041;-48
2021/12/04 04:16:13;;;;;;;14.20;8.35;;;3.90;99.90;;;;;;5107809;28;20030;-48
2021/12/04 04:18:38;;;;;;;14.05;8.00;;;3.90;99.90;;;;;;5108978;28;20072;-48
2021/12/04 04:21:05;;;;;;;12.27;8.15;;;3.80;99.90;;;;;;5109167;28;20094;-49
2021/12/04 04:23:30;;;;;;;11.55;7.65;;;3.90;99.90;;;;;;5108435;28;20027;-48
2021/12/04 04:25:56;;;;;;;15.05;9.65;;;3.80;99.90;;;;;;5108611;28;20024;-48
2021/12/04 04:28:22;;;;;;;12.82;7.80;;;3.90;99.90;;;;;;5107647;28;20027;-49
2021/12/04 04:30:47;;;;;;;12.93;8.45;;;3.90;99.90;;;;;;5108933;28;20078;-50
2021/12/04 04:33:14;;;;;;;15.38;8.80;;;3.80;99.90;;;;;;5099643;28;20024;-50
2021/12/04 04:35:42;;;;;;;19.75;9.32;;;3.90;99.90;;;;;;5100373;28;20023;-49
2021/12/04 04:59:40;;;;;;;12.00;8.43;;;3.80;99.90;;;;;;5107946;28;20066;-48
2021/12/04 05:12:56;;;;;;;14.00;7.63;;;3.80;99.90;;;;;;5067960;28;20039;-47
2021/12/04 05:18:15;;;;;;;13.95;8.05;;;3.80;99.90;;;;;;5087800;28;20111;-49
2021/12/04 05:20:42;;;;;;;11.55;7.75;;;3.80;99.90;;;;;;5087018;28;20012;-48
2021/12/04 05:23:10;;;;;;;11.98;8.38;;;3.80;99.90;;;;;;5087616;28;20478;-48
2021/12/04 05:25:36;;;;;;;16.08;8.73;;;3.80;99.90;;;;;;5087132;28;20043;-48
2021/12/04 05:28:04;;;;;;;11.60;7.10;;;3.80;99.90;;;;;;5087117;28;20511;-49
2021/12/04 05:30:30;;;;;;;15.23;8.30;;;3.80;99.90;;;;;;5087648;28;20081;-49
2021/12/04 05:32:56;;;;;;;11.35;7.03;;;3.80;99.90;;;;;;5088260;28;20435;-50
2021/12/04 05:35:21;;;;;;;12.25;8.30;;;3.80;99.90;;;;;;5090709;28;20319;-47
2021/12/04 05:37:48;;;;;;;11.18;7.97;;;3.80;99.90;;;;;;5091371;28;20393;-47
2021/12/04 05:40:15;;;;;;;12.13;7.18;;;3.80;99.90;;;;;;5091405;28;20032;-46
2021/12/04 05:42:42;;;;;;;11.82;8.18;;;3.80;99.90;;;;;;5091077;28;20020;-47
2021/12/04 05:45:15;;;;;;;11.77;8.15;;;3.80;99.90;;;;;;5090593;28;20021;-48
2021/12/04 05:47:46;;;;;;;11.40;7.50;;;3.80;99.90;;;;;;5091147;28;20031;-46
2021/12/04 05:53:14;;;;;;;9.68;7.13;;;3.80;99.90;;;;;;5089788;28;20153;-48
2021/12/04 05:55:51;;;;;;;10.82;7.45;;;3.90;99.90;;;;;;5086816;28;20285;-49
2021/12/04 05:58:18;;;;;;;14.65;9.48;;;3.90;99.90;;;;;;5089519;28;20032;-48
2021/12/04 06:00:44;;;;;;;11.52;8.13;;;3.80;99.90;;;;;;5089584;28;20024;-49
2021/12/04 06:03:09;;;;;;;12.15;7.53;;;3.80;99.90;;;;;;5091430;28;20032;-48
2021/12/04 06:05:36;;;;;;;11.70;6.88;;;3.80;99.90;;;;;;5091847;28;20082;-49
2021/12/04 06:08:01;;;;;;;13.25;7.32;;;3.80;99.90;;;;;;5090928;28;20016;-49
2021/12/04 06:10:27;;;;;;;11.02;7.00;;;3.90;99.90;;;;;;5090841;28;20051;-49
2021/12/04 06:12:53;;;;;;;13.30;8.18;;;3.90;99.90;;;;;;5090612;28;20109;-48
2021/12/04 06:15:19;;;;;;;12.52;7.50;;;3.90;99.90;;;;;;5088678;28;20115;-48
2021/12/04 06:17:44;;;;;;;12.02;7.93;;;3.90;99.90;;;;;;5090237;28;20114;-48
2021/12/04 06:22:54;;;;;;;10.05;6.93;;;4.00;99.90;;;;;;5089516;28;20027;-48
2021/12/04 06:25:24;;;;;;;8.73;6.72;;;4.00;99.90;;;;;;5089509;28;20458;-47
2021/12/04 06:27:50;;;;;;;8.95;6.38;;;3.90;99.90;;;;;;5088591;28;20052;-47
2021/12/04 06:30:17;;;;;;;8.68;6.32;;;4.00;99.90;;;;;;5089985;28;20650;-48
2021/12/04 06:32:47;;;;;;;13.88;7.80;;;4.00;99.90;;;;;;5088845;28;20207;-48
2021/12/04 06:35:14;;;;;;;11.32;7.60;;;4.00;99.90;;;;;;5095044;28;20319;-48
2021/12/04 06:37:41;;;;;;;12.00;7.63;;;4.00;99.90;;;;;;5089347;28;20494;-48
2021/12/04 06:40:08;;;;;;;9.90;6.30;;;4.00;99.90;;;;;;5090061;28;20036;-49
2021/12/04 06:42:34;;;;;;;10.88;7.05;;;4.00;99.90;;;;;;5089675;28;20028;-50
2021/12/04 06:45:00;;;;;;;9.80;7.45;;;3.90;99.90;;;;;;5088589;28;20031;-48
2021/12/04 06:47:26;;;;;;;10.30;6.82;;;3.90;99.90;;;;;;5088784;28;20397;-48
2021/12/04 06:49:55;;;;;;;11.88;7.47;;;3.90;99.90;;;;;;5088469;28;20027;-48
2021/12/04 06:52:24;;;;;;;9.95;7.15;;;3.90;99.90;;;;;;5090179;28;20852;-47
2021/12/04 06:54:58;;;;;;;8.90;6.47;;;3.90;99.90;;;;;;5090006;28;20035;-48
2021/12/04 06:57:25;;;;;;;9.38;6.75;;;3.90;99.90;;;;;;5090223;28;20046;-47
2021/12/04 06:59:53;;;;;;;8.80;6.32;;;3.90;99.90;;;;;;5089351;28;20024;-47
2021/12/04 07:02:20;;;;;;;7.93;6.30;;;3.90;99.90;;;;;;5090505;28;20518;-48
2021/12/04 07:04:45;;;;;;;9.80;6.38;;;3.90;99.90;;;;;;5092311;28;20028;-49
2021/12/04 07:07:12;;;;;;;9.23;5.55;;;4.00;99.90;;;;;;5089602;28;20023;-48
2021/12/04 07:09:39;;;;;;;9.30;5.95;;;4.00;99.90;;;;;;5090091;28;20538;-47
2021/12/04 07:12:05;;;;;;;11.88;6.97;;;4.00;99.90;;;;;;5088846;28;20032;-48
2021/12/04 07:14:32;;;;;;;10.38;6.82;;;4.00;99.90;;;;;;5089238;28;20024;-47
2021/12/04 07:17:01;;;;;;;7.70;6.28;;;4.00;99.90;;;;;;5088037;28;20117;-48
2021/12/04 07:19:26;;;;;;;10.75;5.93;;;4.00;99.90;;;;;;5088685;28;20183;-48
2021/12/04 07:21:52;;;;;;;8.90;6.40;;;4.00;99.90;;;;;;5088970;28;20059;-48
2021/12/04 07:24:17;;;;;;;7.70;5.95;;;4.00;99.90;;;;;;5091698;28;20035;-48
2021/12/04 07:26:43;;;;;;;11.68;6.40;;;4.00;99.90;;;;;;5092699;28;20028;-49
2021/12/04 07:29:09;;;;;;;10.45;6.93;;;4.10;99.90;;;;;;5090026;28;20478;-48
2021/12/04 07:31:37;;;;;;;9.70;6.95;;;4.00;99.90;;;;;;5089109;28;20237;-48
2021/12/04 07:34:03;;;;;;;12.80;6.95;;;4.00;99.90;;;;;;5088047;28;20024;-48
2021/12/04 07:36:29;;;;;;;8.63;6.68;;;4.00;99.90;;;;;;5090762;28;20027;-49
2021/12/04 07:38:54;;;;;;;10.07;6.43;;;4.00;99.90;;;;;;5089057;28;20046;-51
2021/12/04 07:41:20;;;;;;;8.18;5.53;;;4.00;99.90;;;;;;5090034;28;20488;-50
2021/12/04 07:43:46;;;;;;;10.40;6.75;;;4.00;99.90;;;;;;5090781;28;20027;-48
2021/12/04 07:46:11;;;;;;;10.32;6.95;;;4.00;99.90;;;;;;5086352;28;20121;-49
2021/12/04 07:48:37;;;;;;;11.55;7.40;;;4.10;99.90;;;;;;5078366;28;20116;-49
2021/12/04 07:51:04;;;;;;;10.70;6.88;;;4.10;99.90;;;;;;5089492;28;20031;-51
2021/12/04 07:53:31;;;;;;;9.27;6.47;;;4.10;99.90;;;;;;5090248;28;20388;-51
2021/12/04 07:55:57;;;;;;;9.23;6.32;;;4.10;99.90;;;;;;5089277;28;20145;-48
2021/12/04 07:58:22;;;;;;;7.82;5.65;;;4.10;99.90;;;;;;5090783;28;20119;-49
2021/12/04 08:00:49;;;;;;;8.65;5.65;;;4.10;99.90;;;;;;5090320;28;20118;-48
2021/12/04 08:03:14;;;;;;;8.30;6.05;;;4.10;99.90;;;;;;5092502;28;20055;-51
2021/12/04 08:05:41;;;;;;;9.00;6.15;;;4.10;99.90;;;;;;5096921;28;20012;-50
2021/12/04 08:08:06;;;;;;;10.80;6.45;;;4.10;99.90;;;;;;5085861;28;20028;-48
2021/12/04 08:10:33;;;;;;;12.80;6.97;;;4.10;99.90;;;;;;5077459;28;20020;-48
2021/12/04 08:13:01;;;;;;;9.05;6.00;;;4.10;99.90;;;;;;5100868;28;20056;-49
2021/12/04 08:15:28;;;;;;;9.40;5.60;;;4.20;99.90;;;;;;5098723;28;20031;-50
2021/12/04 08:17:54;;;;;;;8.48;5.65;;;4.20;99.90;;;;;;5090580;28;20149;-49
2021/12/04 08:20:20;;;;;;;6.97;5.38;;;4.20;99.90;;;;;;5090599;28;20059;-49
2021/12/04 08:22:46;;;;;;;8.88;5.75;;;4.20;99.90;;;;;;5091352;28;20032;-51
2021/12/04 08:25:15;;;;;;;8.75;5.78;;;4.20;99.90;;;;;;5091316;28;20028;-51
2021/12/04 08:27:41;;;;;;;12.27;6.07;;;4.20;99.90;;;;;;5090222;28;20173;-51
2021/12/04 08:30:10;;;;;;;8.73;5.80;;;4.20;99.90;;;;;;5089931;28;20421;-49
2021/12/04 08:32:36;;;;;;;11.35;7.15;;;4.30;99.90;;;;;;5090112;28;20059;-50
2021/12/04 08:35:02;;;;;;;9.27;5.80;;;4.20;99.90;;;;;;5089510;28;20024;-51
2021/12/04 08:37:28;;;;;;;11.50;7.00;;;4.30;99.90;;;;;;5110129;28;20099;-50
2021/12/04 08:39:54;;;;;;;8.70;6.03;;;4.20;99.90;;;;;;5109716;28;20084;-52
2021/12/04 08:42:22;;;;;;;10.98;6.65;;;4.30;99.90;;;;;;5109789;28;20023;-50
2021/12/04 08:44:48;;;;;;;8.25;5.53;;;4.30;99.90;;;;;;5109183;27;20103;-50
2021/12/04 08:47:14;;;;;;;8.15;5.93;;;4.30;99.90;;;;;;5109617;28;20131;-50
2021/12/04 08:49:39;;;;;;;10.45;7.40;;;4.30;99.90;;;;;;5109575;28;20023;-49
2021/12/04 08:52:05;;;;;;;10.57;7.28;;;4.40;99.90;;;;;;5109418;28;20034;-49
2021/12/04 08:54:31;;;;;;;10.63;7.30;;;4.40;99.90;;;;;;5109062;28;20443;-49
2021/12/04 08:56:57;;;;;;;9.63;7.43;;;4.40;99.90;;;;;;5108104;28;20032;-51
2021/12/04 08:59:22;;;;;;;13.52;8.35;;;4.40;99.90;;;;;;5109880;28;20054;-50
2021/12/04 09:01:49;;;;;;;11.90;7.78;;;4.40;99.90;;;;;;5109624;28;20028;-50
2021/12/04 09:04:19;;;;;;;11.90;8.15;;;4.40;99.90;;;;;;5095820;28;20177;-49
2021/12/04 09:06:44;;;;;;;9.75;7.38;;;4.50;99.90;;;;;;5104598;28;20049;-48
2021/12/04 09:09:12;;;;;;;13.95;8.82;;;4.50;99.90;;;;;;5109787;28;20050;-51
2021/12/04 09:11:45;;;;;;;12.05;8.45;;;4.50;99.90;;;;;;5109644;28;20465;-50
2021/12/04 09:14:14;;;;;;;16.15;9.98;;;4.40;99.90;;;;;;5107813;28;20664;-51
2021/12/04 09:16:39;;;;;;;10.52;7.18;;;4.40;99.90;;;;;;5108305;28;20500;-50
2021/12/04 09:19:05;;;;;;;12.95;8.02;;;4.50;99.90;;;;;;5109123;28;20067;-51
2021/12/04 09:21:35;;;;;;;8.80;6.85;;;4.50;99.90;;;;;;5109357;28;20341;-50
2021/12/04 09:24:06;;;;;;;14.93;8.70;;;4.60;99.90;;;;;;5108961;28;20053;-51
2021/12/04 09:26:41;;;;;;;;;;;4.60;99.90;;;;;;5110041;28;20405;-49
2021/12/04 09:59:46;;;;;;;13.35;8.88;;;4.70;99.90;;;;;;5109346;28;20091;-49
2021/12/04 10:32:44;;;;;;;12.90;8.23;;;5.30;99.90;;;;;;5070826;28;20152;-50
2021/12/04 10:35:20;;;;;;;11.95;9.38;;;5.30;99.90;;;;;;5101363;28;20024;-50
2021/12/04 10:38:03;;;;;;;15.82;10.38;;;5.40;99.90;;;;;;5112331;28;20039;-51
2021/12/04 10:40:37;;;;;;;15.30;9.07;;;5.40;99.90;;;;;;5112193;28;20102;-50
2021/12/04 10:43:12;;;;;;;13.43;9.43;;;5.50;99.90;;;;;;5112214;28;20016;-49
2021/12/04 10:45:41;;;;;;;16.38;10.10;;;5.50;99.90;;;;;;5110306;28;20038;-49
2021/12/04 10:48:12;;;;;;;11.50;8.80;;;5.50;99.90;;;;;;5111940;28;20100;-49
2021/12/04 10:53:13;;;;;;;10.20;7.65;;;5.60;99.90;;;;;;5112175;27;20481;-49
2021/12/04 10:58:26;;;;;;;11.15;8.57;;;5.60;99.90;;;;;;5111849;28;20035;-50
2021/12/04 11:03:47;;;;;;;12.13;8.35;;;5.60;99.90;;;;;;5109695;28;20041;-49
2021/12/04 11:20:09;;;;;;;11.75;8.23;;;5.40;99.90;;;;;;5111500;28;20054;-48
2021/12/04 11:25:43;;;;;;;15.35;9.30;;;5.40;99.90;;;;;;5111572;28;20027;-48
2021/12/04 11:28:20;;;;;;;12.55;8.57;;;5.50;99.90;;;;;;5111613;28;20020;-51
2021/12/04 11:36:27;;;;;;;10.75;8.02;;;5.70;99.90;;;;;;5110450;28;20065;-51
2021/12/04 11:39:19;;;;;;;11.48;7.80;;;5.80;99.90;;;;;;5110792;28;20496;-51
2021/12/04 11:41:55;;;;;;;12.48;8.95;;;5.90;99.90;;;;;;5110867;28;20063;-51
2021/12/04 11:44:28;;;;;;;10.63;8.10;;;5.90;99.90;;;;;;5110624;28;20081;-51
2021/12/04 11:46:56;;;;;;;11.75;8.57;;;6.00;99.90;;;;;;5110652;28;20035;-49
2021/12/04 11:49:26;;;;;;;12.75;9.07;;;6.00;99.90;;;;;;5109157;28;20035;-49
2021/12/04 11:51:58;;;;;;;14.32;10.10;;;6.00;99.90;;;;;;5110687;28;20024;-49
2021/12/04 11:54:31;;;;;;;13.30;8.48;;;6.00;99.90;;;;;;5110408;28;20035;-51
2021/12/04 11:57:09;;;;;;;11.82;9.00;;;6.00;99.90;;;;;;5110551;28;20028;-49
2021/12/04 11:59:37;;;;;;;13.38;8.75;;;6.10;99.90;;;;;;5110286;27;20070;-49
2021/12/04 12:02:06;;;;;;;13.65;9.95;;;6.10;99.90;;;;;;5110369;28;20024;-51
2021/12/04 12:04:39;;;;;;;12.20;9.95;;;6.10;99.90;;;;;;5100151;28;20092;-50
2021/12/04 12:07:20;;;;;;;13.27;9.45;;;6.20;99.90;;;;;;5108233;28;20085;-51
2021/12/04 12:09:49;;;;;;;14.52;9.90;;;6.20;99.90;;;;;;5110275;28;20430;-50
2021/12/04 12:12:16;;;;;;;16.67;10.30;;;6.10;99.90;;;;;;5110234;28;20501;-51
2021/12/04 12:14:50;;;;;;;13.43;9.43;;;6.10;99.90;;;;;;5110364;28;20028;-50
2021/12/04 12:17:37;;;;;;;11.60;9.38;;;6.10;99.90;;;;;;5110263;28;20027;-51
2021/12/04 12:20:06;;;;;;;14.23;10.43;;;6.10;99.90;;;;;;5109882;28;20024;-49
2021/12/04 12:25:32;;;;;;;12.30;9.30;;;6.10;99.90;;;;;;5109879;28;20096;-50
2021/12/04 12:33:59;;;;;;;10.70;7.75;;;6.00;99.90;;;;;;5108744;28;20065;-49
2021/12/04 12:36:29;;;;;;;10.27;8.05;;;5.90;99.90;;;;;;5094098;28;20032;-51
2021/12/04 12:39:07;;;;;;;12.85;8.45;;;5.90;99.90;;;;;;5109716;28;20519;-50
2021/12/04 12:41:49;;;;;;;12.52;7.72;;;5.90;99.90;;;;;;5109511;28;20142;-51
2021/12/04 12:44:22;;;;;;;9.40;7.38;;;5.90;99.90;;;;;;5109321;28;20020;-49
2021/12/04 12:46:50;;;;;;;13.57;8.95;;;5.90;99.90;;;;;;5109610;28;20028;-48
2021/12/04 12:49:29;;;;;;;10.80;8.40;;;6.00;99.90;;;;;;5109280;28;20473;-49
2021/12/04 12:51:56;;;;;;;10.18;6.78;;;5.90;99.90;;;;;;5109630;28;20066;-51
2021/12/04 12:54:26;;;;;;;12.52;9.07;;;6.00;99.90;;;;;;5108993;28;20153;-51
2021/12/04 12:56:59;;;;;;;12.90;8.07;;;6.00;99.90;;;;;;5109659;28;20370;-51
2021/12/04 12:59:58;;;;;;;10.07;7.53;;;6.00;99.90;;;;;;5108319;28;20496;-50
2021/12/04 13:14:23;;;;;;;15.90;8.95;;;6.10;99.90;;;;;;5109044;28;20027;-51
2021/12/04 13:16:58;;;;;;;11.93;8.48;;;6.10;99.90;;;;;;5109184;28;20032;-51
2021/12/04 13:19:25;;;;;;;14.77;9.00;;;6.00;99.90;;;;;;5109150;28;20499;-51
2021/12/04 13:21:53;;;;;;;14.93;9.27;;;6.00;99.90;;;;;;5109153;28;20020;-51
2021/12/04 13:24:23;;;;;;;14.07;8.57;;;6.00;99.90;;;;;;5108841;28;20054;-51
2021/12/04 13:26:51;;;;;;;17.77;9.80;;;6.00;99.90;;;;;;5109356;28;20202;-48
2021/12/04 13:29:22;;;;;;;13.73;9.45;;;5.90;99.90;;;;;;5109120;28;20045;-49
2021/12/04 13:31:52;;;;;;;14.50;9.50;;;6.00;99.90;;;;;;5109219;28;20031;-50
2021/12/04 13:34:24;;;;;;;15.45;9.52;;;5.90;99.90;;;;;;5099433;28;20032;-49
2021/12/04 13:36:49;;;;;;;13.18;9.25;;;5.70;99.90;;;;;;5092967;28;20031;-49
2021/12/04 13:39:18;;;;;;;15.80;9.63;;;5.70;99.90;;;;;;5087338;28;20020;-48
2021/12/04 13:41:45;;;;;;;12.65;8.88;;;5.70;99.90;;;;;;5088798;28;20154;-49
2021/12/04 13:44:14;;;;;;;12.52;8.80;;;5.70;99.90;;;;;;5088367;28;20307;-49
2021/12/04 13:46:48;;;;;;;15.45;10.10;;;5.60;99.90;;;;;;5088305;28;20028;-50
2021/12/04 13:49:18;;;;;;;15.13;9.65;;;5.60;99.90;;;;;;5087146;28;20177;-48
2021/12/04 13:51:55;;;;;;;13.85;9.77;;;5.50;99.90;;;;;;5088592;28;20028;-48
2021/12/04 13:54:23;;;;;;;23.10;11.05;;;5.50;99.90;;;;;;5090699;28;20512;-48
2021/12/04 13:56:49;;;;;;;16.75;10.23;;;5.50;99.90;;;;;;5091296;28;20439;-50
2021/12/04 13:59:14;;;;;;;13.93;9.68;;;5.50;99.90;;;;;;5092843;28;20023;-48
2021/12/04 14:01:42;;;;;;;13.20;9.13;;;5.50;99.90;;;;;;5092590;28;20021;-50
2021/12/04 14:04:16;;;;;;;13.15;9.48;;;5.50;99.90;;;;;;5099253;28;20245;-49
2021/12/04 14:07:08;;;;;;;12.48;9.50;;;5.50;99.90;;;;;;5107212;28;20045;-51
2021/12/04 14:09:36;;;;;;;12.77;10.00;;;5.50;99.90;;;;;;5111575;28;20044;-48
2021/12/04 14:12:04;;;;;;;13.98;10.40;;;5.50;99.90;;;;;;5112556;28;20161;-48
2021/12/04 14:14:31;;;;;;;15.95;10.48;;;5.40;99.90;;;;;;5112543;28;20024;-48
2021/12/04 14:17:08;;;;;;;15.10;11.45;;;5.40;99.90;;;;;;5112984;28;20019;-48
2021/12/04 14:19:35;;;;;;;14.93;9.90;;;5.40;99.90;;;;;;5112462;28;20024;-48
2021/12/04 14:22:02;;;;;;;17.05;11.43;;;5.30;99.90;;;;;;5112770;28;20020;-51
2021/12/04 14:24:31;;;;;;;16.35;10.45;;;5.30;99.90;;;;;;5112226;28;20481;-49
2021/12/04 14:27:00;;;;;;;15.40;10.95;;;5.30;99.90;;;;;;5112666;28;20053;-48
2021/12/04 14:29:31;;;;;;;15.32;11.35;;;5.30;99.90;;;;;;5112314;28;20039;-49
2021/12/04 14:31:57;;;;;;;16.27;11.68;;;5.20;99.90;;;;;;5110873;28;20473;-48
2021/12/04 14:34:25;;;;;;;19.75;12.20;;;5.20;99.90;;;;;;5107422;28;20028;-48
2021/12/04 14:37:11;;;;;;;21.83;13.13;;;5.10;99.90;;;;;;5107830;28;20032;-48
2021/12/04 14:39:39;;;;;;;19.02;12.27;;;5.10;99.90;;;;;;5112271;28;20112;-50
2021/12/04 14:42:18;;;;;;;19.13;12.93;;;5.10;99.90;;;;;;5111991;28;20056;-48
2021/12/04 14:44:49;;;;;;;18.92;13.90;;;5.00;99.90;;;;;;5111565;28;20016;-49
2021/12/04 14:47:16;;;;;;;19.55;12.93;;;5.00;99.90;;;;;;5110580;28;20035;-49
2021/12/04 14:49:46;;;;;;;15.52;11.32;;;5.00;99.90;;;;;;5110605;28;20031;-48
2021/12/04 14:52:24;;;;;;;19.13;13.37;;;5.00;99.90;;;;;;5112433;28;20038;-48
2021/12/04 14:54:51;;;;;;;22.52;14.50;;;5.00;99.90;;;;;;5111680;28;20623;-49
2021/12/04 14:57:25;;;;;;;26.30;17.77;;;5.00;99.90;;;;;;5110871;28;20028;-48
2021/12/04 15:00:07;;;;;;;27.05;17.85;;;5.00;99.90;;;;;;5110567;28;20090;-48
2021/12/04 15:02:32;;;;;;;30.80;18.70;;;4.90;99.90;;;;;;5111878;28;20500;-48
2021/12/04 15:04:58;;;;;;;24.58;16.85;;;4.90;99.90;;;;;;5093475;28;20030;-49
2021/12/04 15:07:27;;;;;;;24.92;16.52;;;4.80;99.90;;;;;;5099859;28;20020;-48
2021/12/04 15:09:52;;;;;;;25.38;16.83;;;4.80;99.90;;;;;;5091583;28;20024;-49
2021/12/04 15:12:44;;;;;;;22.95;16.48;;;4.80;99.90;;;;;;5091227;28;20409;-48
2021/12/04 15:15:10;;;;;;;25.33;17.45;;;4.80;99.90;;;;;;5089581;28;20036;-48
2021/12/04 15:17:40;;;;;;;21.33;16.00;;;4.70;99.90;;;;;;5091493;28;20165;-48
2021/12/04 15:20:15;;;;;;;22.25;15.80;;;4.70;99.90;;;;;;5090881;28;20032;-51
2021/12/04 15:22:44;;;;;;;22.35;14.95;;;4.70;99.90;;;;;;5091029;28;20016;-50
2021/12/04 15:25:10;;;;;;;20.88;14.52;;;4.70;99.90;;;;;;5090524;28;20023;-50
2021/12/04 15:27:36;;;;;;;18.10;14.00;;;4.70;99.90;;;;;;5089918;28;20039;-50
2021/12/04 15:30:05;;;;;;;21.90;14.93;;;4.60;99.90;;;;;;5091055;28;20431;-50
2021/12/04 15:32:31;;;;;;;21.17;15.45;;;4.60;99.90;;;;;;5090954;28;20123;-50
2021/12/04 15:35:05;;;;;;;22.88;14.88;;;4.50;99.90;;;;;;5090361;28;20477;-49
2021/12/04 15:37:47;;;;;;;22.83;15.98;;;4.50;99.90;;;;;;5104170;28;20396;-51
2021/12/04 15:40:50;;;;;;;22.13;14.85;;;4.50;99.90;;;;;;5111065;28;20034;-51
2021/12/04 15:43:31;;;;;;;21.40;15.50;;;4.50;99.90;;;;;;5107065;28;20032;-50
2021/12/04 15:46:22;;;;;;;23.70;15.35;;;4.50;99.90;;;;;;5111223;28;20028;-48
2021/12/04 15:54:08;;;;;;;28.65;16.45;;;4.40;99.90;;;;;;5110721;28;20027;-48
2021/12/04 15:56:43;;;;;;;20.65;14.77;;;4.40;99.90;;;;;;5110982;28;20473;-48